• Join FlightAware (Why Join?)
  • Login
  • US Flag 
05:51AM EST


 

Airport Tracker/Info


-or-


 

Live Flight TrackerFlight Track Log ✈ SKW6488 ✈ 03-May-2012 ✈ KMKG - KORD

Flight Track Log - Related Links

Times and Time Zones

All times are in EDT time to prevent confusion due to time zone crossing. See the SKW6488 flight status page for this flight to view local times or setup timezone preferences in your user account.

Time Position Orientation Groundspeed Altitude Reporting Facility
EDT Latitude Longitude Course Direction KTS MPH feet Rate Location/Type
12:18PM 43.1570 -86.2510 172° South  Level FlightAware Approximate
12:19PM 43.0608 -86.2325 200° South 203 234 5,700  Level Chicago Center
12:20PM 43.0092 -86.2578 233° Southwest 214 246 7,500 2,280 Climbing Chicago Center
12:21PM 42.9656 -86.3367 229° Southwest 270 311 10,300 2,100 Climbing Chicago Center
12:22PM 42.9175 -86.4128 228° Southwest 270 311 11,800 1,740 Climbing Chicago Center
12:23PM 42.8653 -86.4917 229° Southwest 270 311 13,800 1,860 Climbing Chicago Center
12:24PM 42.8111 -86.5761 228° Southwest 281 323 15,600 1,080 Climbing Chicago Center
12:25PM 42.7506 -86.6664 233° Southwest 307 353 16,000 180 Climbing Chicago Center
12:26PM 42.6906 -86.7736 235° Southwest 336 387 16,000 -360 Level Chicago Center
12:27PM 42.6306 -86.8919 233° Southwest 348 400 15,300 -960 Descending Chicago Center
12:28PM 42.5725 -86.9983 233° Southwest 354 407 14,100 -1,260 Descending Chicago Center
12:29PM 42.5181 -87.0961 236° Southwest 354 407 12,900 -1,260 Descending Chicago Center
12:30PM 42.4758 -87.1822 233° Southwest 317 365 11,600 -1,380 Descending Chicago Center
12:31PM 42.4336 -87.2569 238° Southwest 283 326 10,200 -1,320 Descending Chicago Center
12:32PM 42.3933 -87.3425 233° Southwest 272 313 9,000 -600 Descending Chicago Center
12:33PM 42.3589 -87.4053 169° South 252 290 9,000 -240 Level Chicago Center
12:34PM 42.2858 -87.3853 174° South 249 287 8,600 -1,020 Descending Chicago Center
12:35PM 42.2189 -87.3761 167° South 257 296 7,000 -840 Descending Chicago Center
12:36PM 42.1433 -87.3533 170° South 267 307 7,000  Level Chicago Center
12:37PM 42.0703 -87.3358 214° Southwest 267 307 7,000  Level Chicago Center
12:38PM 42.0000 -87.4000 255° West 240 276 7,000  Level Chicago TRACON
12:39PM 41.9833 -87.4833 270° West 249 287 7,000 -720 Level Chicago TRACON
12:40PM 41.9833 -87.5667 270° West 256 295 5,700 -1,620 Descending Chicago TRACON
12:41PM 41.9833 -87.6500 270° West 240 276 4,000 -1,380 Descending Chicago TRACON
12:42PM 41.9833 -87.7333 270° West 208 239 3,000 -1,020 Descending Chicago TRACON